Time;durP1;ratioP1;P1;durP2;ratioP2;P2;SDS_P1;SDS_P2;PMS_P1;PMS_P2;Temp;Humidity;BMP_temperature;BMP_pressure;BME280_temperature;BME280_humidity;BME280_pressure;Samples;Min_cycle;Max_cycle;Signal;HPM_P1;HPM_P2
2021/07/22 00:01:05;;;;;;;5.28;4.10;;;;;;;;;;5048317;28;20564;-58
2021/07/22 00:03:32;;;;;;;5.88;4.55;;;;;;;;;;5047919;28;20398;-58
2021/07/22 00:06:00;;;;;;;5.65;4.63;;;;;;;;;;5048424;28;20056;-58
2021/07/22 00:08:26;;;;;;;5.80;4.55;;;;;;;;;;5047565;28;20026;-58
2021/07/22 00:10:52;;;;;;;5.72;4.20;;;;;;;;;;5048625;28;20113;-58
2021/07/22 00:13:18;;;;;;;5.03;3.97;;;;;;;;;;5046953;28;20115;-58
2021/07/22 00:15:44;;;;;;;6.15;4.55;;;;;;;;;;5048629;28;20021;-58
2021/07/22 00:18:10;;;;;;;6.00;4.40;;;;;;;;;;5046931;28;20415;-58
2021/07/22 00:20:36;;;;;;;5.28;4.00;;;;;;;;;;5041701;28;20049;-58
2021/07/22 00:23:02;;;;;;;6.20;4.63;;;;;;;;;;5028219;28;20034;-58
2021/07/22 00:25:28;;;;;;;5.57;4.50;;;;;;;;;;5044488;28;20399;-58
2021/07/22 00:27:54;;;;;;;6.35;4.90;;;;;;;;;;5048195;28;20499;-58
2021/07/22 00:30:20;;;;;;;5.90;4.78;;;;;;;;;;5048195;28;20616;-58
2021/07/22 00:32:46;;;;;;;6.53;4.90;;;;;;;;;;5048024;28;20048;-58
2021/07/22 00:35:12;;;;;;;6.43;4.93;;;;;;;;;;5047488;28;20479;-58
2021/07/22 00:37:38;;;;;;;6.68;4.93;;;;;;;;;;5047644;28;20479;-58
2021/07/22 00:40:05;;;;;;;6.60;4.70;;;;;;;;;;5041129;28;20416;-58
2021/07/22 00:42:51;;;;;;;6.50;4.60;;;;;;;;;;5027555;28;20138;-58
2021/07/22 00:45:17;;;;;;;6.20;4.82;;;;;;;;;;5027505;28;20124;-58
2021/07/22 00:47:43;;;;;;;6.30;4.80;;;;;;;;;;5027883;28;20021;-58
2021/07/22 00:50:09;;;;;;;5.80;4.28;;;;;;;;;;5027300;28;20022;-58
2021/07/22 00:52:35;;;;;;;6.80;4.50;;;;;;;;;;5027523;28;20125;-58
2021/07/22 00:55:01;;;;;;;7.13;4.80;;;;;;;;;;5027786;28;20495;-58
2021/07/22 00:57:28;;;;;;;5.18;4.22;;;;;;;;;;5028028;28;20499;-58
2021/07/22 00:59:54;;;;;;;6.93;5.05;;;;;;;;;;5027611;28;20028;-58
2021/07/22 01:02:20;;;;;;;5.90;4.50;;;;;;;;;;5026916;28;20037;-58
2021/07/22 01:04:46;;;;;;;6.28;4.60;;;;;;;;;;5027169;28;20047;-58
2021/07/22 01:07:12;;;;;;;6.93;4.78;;;;;;;;;;5026942;28;20029;-58
2021/07/22 01:09:38;;;;;;;6.40;4.70;;;;;;;;;;5039322;28;20379;-58
2021/07/22 01:12:05;;;;;;;6.32;4.63;;;;;;;;;;5046308;28;20039;-58
2021/07/22 01:14:31;;;;;;;6.25;4.70;;;;;;;;;;5047118;28;20529;-58
2021/07/22 01:16:57;;;;;;;6.13;4.50;;;;;;;;;;5047832;28;20033;-58
2021/07/22 01:19:23;;;;;;;7.53;4.32;;;;;;;;;;5046663;28;20036;-58
2021/07/22 01:21:49;;;;;;;6.30;4.57;;;;;;;;;;5047008;28;20514;-57
2021/07/22 01:24:15;;;;;;;6.65;4.95;;;;;;;;;;5046816;28;20025;-58
2021/07/22 01:26:41;;;;;;;5.50;4.22;;;;;;;;;;5046714;28;20621;-57
2021/07/22 01:29:07;;;;;;;6.32;4.85;;;;;;;;;;5045844;28;20489;-57
2021/07/22 01:31:33;;;;;;;7.43;4.80;;;;;;;;;;5027246;28;20502;-57
2021/07/22 01:33:59;;;;;;;5.05;4.13;;;;;;;;;;5026988;28;20059;-57
2021/07/22 01:36:25;;;;;;;6.65;4.75;;;;;;;;;;5033317;28;20036;-57
2021/07/22 01:38:52;;;;;;;6.60;4.60;;;;;;;;;;5046823;28;20083;-58
2021/07/22 01:41:18;;;;;;;5.60;4.28;;;;;;;;;;5046338;28;20032;-58
2021/07/22 01:43:44;;;;;;;5.95;4.40;;;;;;;;;;5046877;28;20032;-58
2021/07/22 01:46:10;;;;;;;5.97;4.70;;;;;;;;;;5046007;28;20495;-58
2021/07/22 01:48:36;;;;;;;6.10;4.47;;;;;;;;;;5046152;28;20104;-58
2021/07/22 01:51:05;;;;;;;6.00;4.05;;;;;;;;;;5046520;28;20086;-58
2021/07/22 01:53:31;;;;;;;5.55;4.57;;;;;;;;;;5046204;28;20475;-58
2021/07/22 01:55:57;;;;;;;6.53;4.82;;;;;;;;;;5047178;28;20037;-58
2021/07/22 01:58:23;;;;;;;6.53;4.78;;;;;;;;;;5046471;28;20036;-58
2021/07/22 02:00:49;;;;;;;6.25;4.57;;;;;;;;;;5046595;28;20533;-58
2021/07/22 02:03:15;;;;;;;5.70;4.50;;;;;;;;;;5045556;28;20550;-58
2021/07/22 02:05:41;;;;;;;5.53;4.30;;;;;;;;;;5044972;28;20032;-58
2021/07/22 02:08:07;;;;;;;6.15;4.30;;;;;;;;;;5046363;28;20387;-58
2021/07/22 02:10:33;;;;;;;5.65;4.30;;;;;;;;;;5045586;28;20507;-58
2021/07/22 02:12:59;;;;;;;6.05;4.60;;;;;;;;;;5046135;28;20022;-58
2021/07/22 02:15:25;;;;;;;5.47;3.88;;;;;;;;;;5046654;28;20063;-58
2021/07/22 02:17:51;;;;;;;6.20;4.35;;;;;;;;;;5046266;28;20132;-58
2021/07/22 02:20:17;;;;;;;6.28;4.70;;;;;;;;;;5045716;28;20543;-58
2021/07/22 02:22:43;;;;;;;6.00;4.00;;;;;;;;;;5046426;28;20538;-58
2021/07/22 02:25:10;;;;;;;5.55;4.53;;;;;;;;;;5046068;28;20494;-58
2021/07/22 02:27:37;;;;;;;7.03;4.93;;;;;;;;;;5046084;28;20021;-58
2021/07/22 02:30:04;;;;;;;6.93;5.07;;;;;;;;;;5046360;28;20375;-58
2021/07/22 02:32:30;;;;;;;6.53;5.15;;;;;;;;;;5046053;28;20044;-58
2021/07/22 02:34:56;;;;;;;8.93;4.57;;;;;;;;;;5046624;28;20039;-58
2021/07/22 02:37:23;;;;;;;6.40;4.65;;;;;;;;;;5034880;28;20370;-58
2021/07/22 02:39:49;;;;;;;7.60;5.20;;;;;;;;;;5044129;28;20522;-58
2021/07/22 02:42:15;;;;;;;8.25;4.60;;;;;;;;;;5047900;28;20553;-58
2021/07/22 02:44:41;;;;;;;5.95;4.60;;;;;;;;;;5050084;28;20029;-58
2021/07/22 02:47:11;;;;;;;7.00;4.78;;;;;;;;;;5049685;28;20557;-58
2021/07/22 02:49:37;;;;;;;5.88;4.57;;;;;;;;;;5048844;28;20367;-58
2021/07/22 02:52:04;;;;;;;7.15;5.03;;;;;;;;;;5049281;28;20100;-58
2021/07/22 02:54:30;;;;;;;6.65;4.75;;;;;;;;;;5049832;28;20021;-58
2021/07/22 02:56:56;;;;;;;7.20;4.97;;;;;;;;;;5050548;28;20387;-58
2021/07/22 02:59:22;;;;;;;6.05;4.50;;;;;;;;;;5048908;28;20561;-58
2021/07/22 03:01:48;;;;;;;7.25;4.80;;;;;;;;;;5049377;28;20029;-58
2021/07/22 03:04:14;;;;;;;8.80;5.57;;;;;;;;;;5049320;28;20029;-58
2021/07/22 03:06:40;;;;;;;6.05;4.53;;;;;;;;;;5048375;28;20503;-58
2021/07/22 03:09:06;;;;;;;7.88;5.05;;;;;;;;;;5049756;28;20029;-57
2021/07/22 03:11:32;;;;;;;6.60;4.63;;;;;;;;;;5049483;28;20032;-58
2021/07/22 03:13:59;;;;;;;6.22;4.60;;;;;;;;;;5049995;28;20383;-58
2021/07/22 03:16:25;;;;;;;7.07;4.63;;;;;;;;;;5049515;28;20031;-58
2021/07/22 03:18:51;;;;;;;6.88;4.93;;;;;;;;;;5048304;28;20407;-58
2021/07/22 03:21:17;;;;;;;7.00;4.97;;;;;;;;;;5047285;28;20504;-58
2021/07/22 03:23:43;;;;;;;7.03;5.10;;;;;;;;;;5048515;28;20033;-58
2021/07/22 03:26:09;;;;;;;5.97;4.53;;;;;;;;;;5048765;28;20051;-58
2021/07/22 03:28:35;;;;;;;6.25;4.72;;;;;;;;;;5049433;28;20663;-58
2021/07/22 03:31:01;;;;;;;8.98;5.40;;;;;;;;;;5049271;28;20036;-58
2021/07/22 03:33:27;;;;;;;7.10;4.75;;;;;;;;;;5049427;28;20510;-58
2021/07/22 03:35:53;;;;;;;6.13;4.68;;;;;;;;;;5049367;28;20717;-58
2021/07/22 03:38:19;;;;;;;5.80;4.82;;;;;;;;;;5048540;28;20029;-58
2021/07/22 03:40:45;;;;;;;6.35;4.35;;;;;;;;;;5048751;28;20082;-58
2021/07/22 03:43:11;;;;;;;6.15;4.57;;;;;;;;;;5048389;28;20025;-58
2021/07/22 03:45:38;;;;;;;6.68;4.47;;;;;;;;;;5048679;28;20065;-58
2021/07/22 03:48:04;;;;;;;6.22;4.72;;;;;;;;;;5048610;28;20074;-58
2021/07/22 03:50:30;;;;;;;7.00;4.78;;;;;;;;;;5043960;28;20098;-58
2021/07/22 03:52:56;;;;;;;6.53;4.53;;;;;;;;;;5031842;28;20031;-58
2021/07/22 03:55:24;;;;;;;5.47;4.20;;;;;;;;;;5048682;28;20150;-58
2021/07/22 03:57:50;;;;;;;6.47;4.60;;;;;;;;;;5048372;28;20478;-58
2021/07/22 04:00:16;;;;;;;5.63;3.97;;;;;;;;;;5048648;28;20467;-58
2021/07/22 04:02:42;;;;;;;6.72;4.75;;;;;;;;;;5048121;28;20115;-58
2021/07/22 04:05:09;;;;;;;6.35;4.57;;;;;;;;;;5045908;28;20664;-58
2021/07/22 04:07:35;;;;;;;7.22;4.93;;;;;;;;;;5048738;28;20052;-58
2021/07/22 04:10:01;;;;;;;6.30;4.47;;;;;;;;;;5047596;28;20511;-58
2021/07/22 04:12:27;;;;;;;5.63;4.50;;;;;;;;;;5048511;28;20028;-58
2021/07/22 04:14:53;;;;;;;5.88;4.50;;;;;;;;;;5048430;28;20031;-58
2021/07/22 04:17:19;;;;;;;6.60;4.80;;;;;;;;;;5047943;28;20554;-58
2021/07/22 04:19:45;;;;;;;6.53;4.68;;;;;;;;;;5048221;28;20021;-57
2021/07/22 04:22:11;;;;;;;6.97;4.47;;;;;;;;;;5046549;28;20032;-58
2021/07/22 04:24:38;;;;;;;5.43;3.90;;;;;;;;;;5047531;28;20037;-58
2021/07/22 04:27:06;;;;;;;6.38;4.50;;;;;;;;;;5047831;28;20032;-58
2021/07/22 04:29:33;;;;;;;6.53;4.60;;;;;;;;;;5048080;28;20071;-58
2021/07/22 04:31:59;;;;;;;6.57;4.68;;;;;;;;;;5048639;28;20448;-58
2021/07/22 04:34:25;;;;;;;6.88;4.65;;;;;;;;;;5047970;28;20526;-58
2021/07/22 04:36:51;;;;;;;6.78;4.72;;;;;;;;;;5048004;28;20556;-58
2021/07/22 04:39:17;;;;;;;7.53;4.88;;;;;;;;;;5032410;28;20136;-58
2021/07/22 04:41:43;;;;;;;6.35;4.70;;;;;;;;;;5027655;28;20171;-58
2021/07/22 04:44:09;;;;;;;5.78;4.47;;;;;;;;;;5027849;28;20112;-58
2021/07/22 04:46:35;;;;;;;6.60;5.07;;;;;;;;;;5027769;28;20546;-58
2021/07/22 04:49:01;;;;;;;6.65;4.70;;;;;;;;;;5027787;28;20476;-58
2021/07/22 04:51:27;;;;;;;7.25;4.53;;;;;;;;;;5028231;28;20563;-58
2021/07/22 04:53:54;;;;;;;7.25;4.97;;;;;;;;;;5027073;28;20406;-58
2021/07/22 04:56:21;;;;;;;6.32;4.47;;;;;;;;;;5027155;28;20030;-58
2021/07/22 04:58:47;;;;;;;7.15;4.65;;;;;;;;;;5027617;28;20025;-58
2021/07/22 05:01:14;;;;;;;7.00;4.90;;;;;;;;;;5026983;28;20044;-58
2021/07/22 05:03:40;;;;;;;6.28;4.60;;;;;;;;;;5027414;28;20032;-58
2021/07/22 05:06:09;;;;;;;6.13;4.50;;;;;;;;;;5026533;28;20553;-57
2021/07/22 05:08:35;;;;;;;7.78;4.60;;;;;;;;;;5027485;28;20025;-58
2021/07/22 05:11:01;;;;;;;5.57;4.35;;;;;;;;;;5027399;28;20029;-58
2021/07/22 05:13:27;;;;;;;7.00;5.10;;;;;;;;;;5027843;28;20091;-58
2021/07/22 05:15:53;;;;;;;5.35;4.40;;;;;;;;;;5027349;28;20480;-58
2021/07/22 05:18:19;;;;;;;6.90;4.93;;;;;;;;;;5026556;28;20776;-58
2021/07/22 05:20:45;;;;;;;5.32;4.00;;;;;;;;;;5027338;28;20479;-58
2021/07/22 05:23:11;;;;;;;5.50;4.15;;;;;;;;;;5026502;28;20101;-58
2021/07/22 05:25:37;;;;;;;7.43;4.88;;;;;;;;;;5044735;28;20046;-58
2021/07/22 05:28:03;;;;;;;5.10;4.05;;;;;;;;;;5047013;28;20493;-58
2021/07/22 05:30:29;;;;;;;6.75;4.38;;;;;;;;;;5047216;28;20025;-57
2021/07/22 05:32:55;;;;;;;7.22;4.35;;;;;;;;;;5047077;28;20591;-57
2021/07/22 05:35:21;;;;;;;6.80;4.97;;;;;;;;;;5046289;28;20499;-57
2021/07/22 05:37:49;;;;;;;5.07;3.85;;;;;;;;;;5040249;28;20041;-57
2021/07/22 05:40:15;;;;;;;6.20;4.53;;;;;;;;;;5046676;28;20108;-57
2021/07/22 05:42:41;;;;;;;6.10;4.45;;;;;;;;;;5034990;28;20777;-57
2021/07/22 05:45:07;;;;;;;4.95;3.88;;;;;;;;;;5027441;28;20029;-57
2021/07/22 05:47:33;;;;;;;6.35;4.43;;;;;;;;;;5037653;28;20408;-57
2021/07/22 05:49:59;;;;;;;8.35;4.63;;;;;;;;;;5026050;28;20449;-57
2021/07/22 05:52:25;;;;;;;6.70;4.75;;;;;;;;;;5026904;28;20656;-57
2021/07/22 05:54:51;;;;;;;5.47;4.13;;;;;;;;;;5038167;28;20492;-57
2021/07/22 05:57:17;;;;;;;5.72;4.20;;;;;;;;;;5026396;28;20060;-57
2021/07/22 05:59:43;;;;;;;5.78;4.38;;;;;;;;;;5037218;28;20021;-57
2021/07/22 06:02:10;;;;;;;6.65;5.05;;;;;;;;;;5040286;28;20037;-57
2021/07/22 06:04:36;;;;;;;6.72;4.70;;;;;;;;;;5036975;28;20418;-57
2021/07/22 06:07:04;;;;;;;6.60;4.47;;;;;;;;;;5026478;28;20028;-57
2021/07/22 06:09:30;;;;;;;6.05;4.50;;;;;;;;;;5028861;28;20030;-57
2021/07/22 06:11:56;;;;;;;5.72;4.32;;;;;;;;;;5028564;28;20030;-57
2021/07/22 06:14:22;;;;;;;6.82;4.88;;;;;;;;;;5027599;28;20863;-57
2021/07/22 06:16:48;;;;;;;5.50;4.40;;;;;;;;;;5027527;28;20109;-57
2021/07/22 06:19:14;;;;;;;7.00;4.72;;;;;;;;;;5042535;28;20439;-57
2021/07/22 06:21:40;;;;;;;6.35;4.82;;;;;;;;;;5031543;28;20060;-57
2021/07/22 06:24:06;;;;;;;6.15;4.53;;;;;;;;;;5030571;28;20025;-57
2021/07/22 06:26:33;;;;;;;6.88;4.53;;;;;;;;;;5042084;28;20072;-57
2021/07/22 06:28:59;;;;;;;5.85;4.60;;;;;;;;;;5048363;28;20465;-57
2021/07/22 06:31:25;;;;;;;5.68;4.35;;;;;;;;;;5050698;28;20523;-57
2021/07/22 06:33:51;;;;;;;6.35;3.85;;;;;;;;;;5050129;28;20659;-57
2021/07/22 06:36:17;;;;;;;6.65;4.70;;;;;;;;;;5037521;28;20788;-57
2021/07/22 06:38:43;;;;;;;5.40;4.13;;;;;;;;;;5030008;28;20025;-57
2021/07/22 06:41:12;;;;;;;5.00;3.90;;;;;;;;;;5031627;28;20516;-57
2021/07/22 06:43:38;;;;;;;6.25;4.90;;;;;;;;;;5035840;28;20016;-57
2021/07/22 06:46:05;;;;;;;5.85;4.53;;;;;;;;;;5039927;28;20087;-57
2021/07/22 06:48:31;;;;;;;7.68;4.85;;;;;;;;;;5030812;28;20029;-57
2021/07/22 06:50:57;;;;;;;6.55;4.85;;;;;;;;;;5036185;28;20402;-57
2021/07/22 06:53:23;;;;;;;6.72;4.65;;;;;;;;;;5047341;28;20055;-57
2021/07/22 06:55:49;;;;;;;6.35;4.55;;;;;;;;;;5038709;28;20064;-57
2021/07/22 06:58:15;;;;;;;6.22;4.78;;;;;;;;;;5035852;28;20078;-57
2021/07/22 07:00:41;;;;;;;7.00;4.85;;;;;;;;;;5050134;28;20074;-57
2021/07/22 07:03:10;;;;;;;6.82;5.30;;;;;;;;;;5048362;28;20491;-57
2021/07/22 07:05:36;;;;;;;7.93;4.80;;;;;;;;;;5033791;28;20412;-57
2021/07/22 07:08:03;;;;;;;5.88;4.43;;;;;;;;;;5029961;28;20622;-57
2021/07/22 07:10:29;;;;;;;6.43;4.65;;;;;;;;;;5030534;28;20021;-57
2021/07/22 07:12:57;;;;;;;7.00;4.90;;;;;;;;;;5041770;28;20074;-57
2021/07/22 07:15:23;;;;;;;5.80;4.60;;;;;;;;;;5042093;28;20025;-57
2021/07/22 07:17:49;;;;;;;6.72;4.80;;;;;;;;;;5030681;28;20076;-57
2021/07/22 07:20:16;;;;;;;5.90;4.53;;;;;;;;;;5048440;28;20036;-57
2021/07/22 07:22:42;;;;;;;6.13;4.43;;;;;;;;;;5048572;28;20036;-57
2021/07/22 07:25:09;;;;;;;6.18;4.88;;;;;;;;;;5042890;28;20037;-57
2021/07/22 07:27:35;;;;;;;5.55;4.18;;;;;;;;;;5029654;28;20721;-57
2021/07/22 07:30:01;;;;;;;4.60;3.65;;;;;;;;;;5037933;28;20064;-58
2021/07/22 07:32:27;;;;;;;5.88;3.80;;;;;;;;;;5038637;28;20122;-58
2021/07/22 07:34:53;;;;;;;6.20;4.22;;;;;;;;;;5043090;28;20692;-58
2021/07/22 07:37:19;;;;;;;5.45;4.38;;;;;;;;;;5046980;28;20041;-58
2021/07/22 07:39:46;;;;;;;6.65;4.35;;;;;;;;;;5034052;28;20539;-58
2021/07/22 07:42:12;;;;;;;5.03;3.65;;;;;;;;;;5031700;28;20036;-58
2021/07/22 07:44:38;;;;;;;5.75;4.20;;;;;;;;;;5029398;28;20447;-58
2021/07/22 07:47:04;;;;;;;5.20;4.15;;;;;;;;;;5033421;28;20377;-58
2021/07/22 07:49:30;;;;;;;4.97;3.65;;;;;;;;;;5032835;28;20040;-58
2021/07/22 07:51:56;;;;;;;5.10;3.90;;;;;;;;;;5033118;28;20035;-58
2021/07/22 07:54:22;;;;;;;5.72;3.70;;;;;;;;;;5034869;28;20113;-58
2021/07/22 07:56:51;;;;;;;5.30;3.92;;;;;;;;;;5042484;28;20113;-58
2021/07/22 07:59:18;;;;;;;4.22;3.30;;;;;;;;;;5031456;28;20121;-58
2021/07/22 08:01:44;;;;;;;4.47;3.70;;;;;;;;;;5031942;28;20124;-58
2021/07/22 08:04:11;;;;;;;5.50;4.15;;;;;;;;;;5034874;28;20115;-58
2021/07/22 08:06:37;;;;;;;4.30;3.55;;;;;;;;;;5031182;28;20036;-58
2021/07/22 08:09:03;;;;;;;4.15;3.25;;;;;;;;;;5029246;28;20557;-58
2021/07/22 08:11:29;;;;;;;5.15;3.55;;;;;;;;;;5029486;28;20491;-58
2021/07/22 08:13:56;;;;;;;4.65;3.65;;;;;;;;;;5029901;28;20025;-58
2021/07/22 08:16:22;;;;;;;5.03;3.47;;;;;;;;;;5028711;28;20033;-58
2021/07/22 08:18:50;;;;;;;4.10;3.35;;;;;;;;;;5028916;28;20499;-58
2021/07/22 08:21:16;;;;;;;4.85;3.67;;;;;;;;;;5037236;28;20446;-57
2021/07/22 08:23:42;;;;;;;3.60;3.20;;;;;;;;;;5049125;28;20025;-58
2021/07/22 08:26:09;;;;;;;4.68;3.33;;;;;;;;;;5048795;28;20116;-58
2021/07/22 08:28:35;;;;;;;3.67;2.85;;;;;;;;;;5048767;28;20023;-58
2021/07/22 08:31:01;;;;;;;4.55;3.15;;;;;;;;;;5036115;28;20092;-58
2021/07/22 08:33:27;;;;;;;4.20;3.08;;;;;;;;;;5034636;28;20060;-58
2021/07/22 08:35:53;;;;;;;3.75;2.80;;;;;;;;;;5029128;28;20392;-58
2021/07/22 08:38:19;;;;;;;4.32;3.35;;;;;;;;;;5032144;28;20559;-58
2021/07/22 08:40:46;;;;;;;4.55;3.25;;;;;;;;;;5028093;28;20049;-58
2021/07/22 08:43:12;;;;;;;3.70;2.53;;;;;;;;;;5028264;28;20118;-58
2021/07/22 08:45:38;;;;;;;3.67;2.75;;;;;;;;;;5028453;28;20032;-58
2021/07/22 08:48:04;;;;;;;4.25;3.35;;;;;;;;;;5028315;28;20026;-58
2021/07/22 08:50:30;;;;;;;3.90;2.90;;;;;;;;;;5028840;28;20487;-58
2021/07/22 08:52:56;;;;;;;3.42;2.65;;;;;;;;;;5028168;28;20030;-58
2021/07/22 08:55:23;;;;;;;3.92;2.83;;;;;;;;;;5027801;28;20034;-58
2021/07/22 08:57:49;;;;;;;3.70;3.20;;;;;;;;;;5036659;28;20021;-58
2021/07/22 09:00:19;;;;;;;3.65;2.83;;;;;;;;;;5035610;28;20048;-58
2021/07/22 09:02:45;;;;;;;4.47;3.22;;;;;;;;;;5038607;28;20422;-58
2021/07/22 09:05:13;;;;;;;3.40;2.40;;;;;;;;;;5033029;28;20499;-58
2021/07/22 09:07:39;;;;;;;4.75;3.17;;;;;;;;;;5036073;28;20021;-58
2021/07/22 09:10:06;;;;;;;3.72;3.10;;;;;;;;;;5037613;28;20013;-58
2021/07/22 09:12:42;;;;;;;3.38;2.78;;;;;;;;;;5032671;28;20475;-58
2021/07/22 09:15:12;;;;;;;3.58;2.80;;;;;;;;;;5028031;28;20032;-58
2021/07/22 09:17:39;;;;;;;4.05;2.85;;;;;;;;;;5026280;28;20357;-59
2021/07/22 09:20:09;;;;;;;4.22;3.55;;;;;;;;;;5028217;28;20029;-58
2021/07/22 09:22:36;;;;;;;4.60;3.20;;;;;;;;;;5027906;28;20037;-58
2021/07/22 09:25:04;;;;;;;3.38;2.90;;;;;;;;;;5027772;28;20025;-59
2021/07/22 09:27:41;;;;;;;2.78;2.40;;;;;;;;;;5027470;28;20049;-58
2021/07/22 09:30:13;;;;;;;3.63;2.65;;;;;;;;;;5029895;28;20025;-58
2021/07/22 09:32:44;;;;;;;4.03;2.75;;;;;;;;;;5027687;28;20053;-58
2021/07/22 09:35:12;;;;;;;2.42;2.08;;;;;;;;;;5029866;28;20099;-58
2021/07/22 09:37:44;;;;;;;3.00;2.45;;;;;;;;;;5035703;28;20036;-58
2021/07/22 09:40:11;;;;;;;3.60;2.42;;;;;;;;;;5033180;28;20023;-58
2021/07/22 09:42:44;;;;;;;2.83;2.53;;;;;;;;;;5039317;28;20032;-58
2021/07/22 09:45:11;;;;;;;2.40;2.10;;;;;;;;;;5032971;28;20052;-58
2021/07/22 09:47:37;;;;;;;3.00;2.50;;;;;;;;;;5033585;28;20029;-58
2021/07/22 09:50:14;;;;;;;2.30;1.85;;;;;;;;;;5037475;28;20017;-58
2021/07/22 09:52:40;;;;;;;2.30;2.10;;;;;;;;;;5026612;28;20056;-58
2021/07/22 09:55:25;;;;;;;2.85;2.15;;;;;;;;;;5026729;28;20100;-58
2021/07/22 09:57:54;;;;;;;4.35;3.30;;;;;;;;;;5026681;28;20029;-58
2021/07/22 10:00:20;;;;;;;3.53;2.90;;;;;;;;;;5030808;28;20188;-58
2021/07/22 10:02:47;;;;;;;2.80;2.50;;;;;;;;;;5031996;28;20148;-59
2021/07/22 10:05:13;;;;;;;2.97;2.53;;;;;;;;;;5032523;28;20047;-59
2021/07/22 10:07:41;;;;;;;2.83;2.42;;;;;;;;;;5046404;28;20032;-59
2021/07/22 10:10:07;;;;;;;4.10;3.25;;;;;;;;;;5038571;28;20109;-58
2021/07/22 10:12:35;;;;;;;3.42;2.80;;;;;;;;;;5033568;28;20033;-58
2021/07/22 10:15:01;;;;;;;3.08;2.53;;;;;;;;;;5026225;28;20051;-58
2021/07/22 10:17:33;;;;;;;2.80;2.50;;;;;;;;;;5041269;28;20021;-58
2021/07/22 10:20:00;;;;;;;3.83;3.00;;;;;;;;;;5033051;28;20037;-58
2021/07/22 10:22:27;;;;;;;4.55;3.30;;;;;;;;;;5044665;28;20041;-58
2021/07/22 10:24:56;;;;;;;4.28;3.25;;;;;;;;;;5041753;28;20025;-58
2021/07/22 10:27:23;;;;;;;3.65;3.15;;;;;;;;;;5026041;28;20376;-59
2021/07/22 10:29:49;;;;;;;4.03;3.03;;;;;;;;;;5035055;28;20028;-58
2021/07/22 10:32:31;;;;;;;3.47;2.97;;;;;;;;;;5040489;28;20120;-58
2021/07/22 10:34:58;;;;;;;3.17;2.72;;;;;;;;;;5026899;28;20057;-58
2021/07/22 10:37:24;;;;;;;3.15;2.75;;;;;;;;;;5027090;28;20025;-58
2021/07/22 10:40:07;;;;;;;3.22;2.72;;;;;;;;;;5026550;28;21122;-58
2021/07/22 10:42:41;;;;;;;3.25;2.90;;;;;;;;;;5037824;28;20070;-58
2021/07/22 10:45:20;;;;;;;4.63;3.60;;;;;;;;;;5035667;28;20036;-58
2021/07/22 10:48:02;;;;;;;3.95;3.38;;;;;;;;;;5043741;28;20127;-59
2021/07/22 10:50:51;;;;;;;3.53;3.03;;;;;;;;;;5032511;28;20033;-59
2021/07/22 10:53:34;;;;;;;4.15;3.72;;;;;;;;;;5032949;28;20036;-59
2021/07/22 10:56:00;;;;;;;4.00;3.53;;;;;;;;;;5031536;28;20483;-58
2021/07/22 10:58:33;;;;;;;4.03;3.17;;;;;;;;;;5043559;28;20488;-59
2021/07/22 11:00:59;;;;;;;3.70;3.17;;;;;;;;;;5042774;28;20398;-58
2021/07/22 11:06:02;;;;;;;3.53;3.08;;;;;;;;;;5029499;28;20037;-58
2021/07/22 11:08:29;;;;;;;4.93;4.13;;;;;;;;;;5034633;28;20029;-59
2021/07/22 11:11:02;;;;;;;4.50;3.83;;;;;;;;;;5034679;28;20029;-58
2021/07/22 11:13:38;;;;;;;4.45;4.00;;;;;;;;;;5037632;28;20037;-58
2021/07/22 11:16:26;;;;;;;4.00;3.40;;;;;;;;;;5029048;28;20040;-59
2021/07/22 11:18:56;;;;;;;4.22;3.60;;;;;;;;;;5034656;28;20108;-58
2021/07/22 11:21:32;;;;;;;5.22;3.67;;;;;;;;;;5028953;28;20029;-58
2021/07/22 11:24:19;;;;;;;3.85;3.45;;;;;;;;;;5040174;28;20035;-58
2021/07/22 11:26:49;;;;;;;5.32;4.40;;;;;;;;;;5031702;28;20038;-58
2021/07/22 11:29:16;;;;;;;4.57;3.80;;;;;;;;;;5029005;28;20104;-58
2021/07/22 11:31:48;;;;;;;3.90;3.50;;;;;;;;;;5030767;28;20040;-59
2021/07/22 11:34:17;;;;;;;4.55;3.72;;;;;;;;;;5029810;28;20025;-59
2021/07/22 11:36:43;;;;;;;4.32;3.75;;;;;;;;;;5029219;28;20053;-59
2021/07/22 11:39:09;;;;;;;3.70;3.17;;;;;;;;;;5028975;28;20446;-59
2021/07/22 11:41:35;;;;;;;5.10;3.95;;;;;;;;;;5040449;28;20041;-59
2021/07/22 11:44:03;;;;;;;4.13;3.63;;;;;;;;;;5046517;28;20029;-59
2021/07/22 11:46:45;;;;;;;4.50;3.75;;;;;;;;;;5043593;28;20038;-59
2021/07/22 11:49:12;;;;;;;3.08;2.67;;;;;;;;;;5048596;28;20028;-59
2021/07/22 11:51:39;;;;;;;4.32;3.50;;;;;;;;;;5040551;28;20026;-59
2021/07/22 11:54:06;;;;;;;4.35;3.78;;;;;;;;;;5034306;28;20044;-59
2021/07/22 11:56:36;;;;;;;3.85;3.10;;;;;;;;;;5030260;28;20037;-59
2021/07/22 11:59:08;;;;;;;4.72;3.70;;;;;;;;;;5037642;28;20070;-59
2021/07/22 12:01:35;;;;;;;4.28;3.88;;;;;;;;;;5036668;28;20090;-59
2021/07/22 12:04:01;;;;;;;3.90;3.50;;;;;;;;;;5038095;28;20418;-59
2021/07/22 12:06:29;;;;;;;4.32;3.53;;;;;;;;;;5035399;28;20048;-59
2021/07/22 12:09:01;;;;;;;4.47;3.80;;;;;;;;;;5028177;28;20030;-59
2021/07/22 12:11:27;;;;;;;4.47;3.97;;;;;;;;;;5042747;28;20029;-59
2021/07/22 12:13:53;;;;;;;3.60;3.30;;;;;;;;;;5036287;28;20492;-59
2021/07/22 12:16:26;;;;;;;4.30;3.72;;;;;;;;;;5040851;28;20025;-59
2021/07/22 12:18:53;;;;;;;5.43;4.38;;;;;;;;;;5039629;28;20036;-59
2021/07/22 12:21:28;;;;;;;5.10;3.75;;;;;;;;;;5033396;28;20057;-59
2021/07/22 12:23:54;;;;;;;3.90;3.47;;;;;;;;;;5042158;28;20104;-59
2021/07/22 12:26:21;;;;;;;5.50;4.40;;;;;;;;;;5034271;28;20037;-59
2021/07/22 12:28:59;;;;;;;4.22;3.83;;;;;;;;;;5038779;28;20033;-59
2021/07/22 12:31:25;;;;;;;4.20;3.63;;;;;;;;;;5034993;28;20309;-59
2021/07/22 12:34:01;;;;;;;4.47;3.75;;;;;;;;;;5031936;28;20026;-59
2021/07/22 12:36:30;;;;;;;4.43;3.88;;;;;;;;;;5036415;28;20644;-59
2021/07/22 12:39:08;;;;;;;5.03;3.45;;;;;;;;;;5030146;28;20511;-59
2021/07/22 12:41:34;;;;;;;7.05;3.97;;;;;;;;;;5032587;28;20056;-57
2021/07/22 12:44:00;;;;;;;4.63;4.13;;;;;;;;;;5039363;28;20418;-57
2021/07/22 12:46:30;;;;;;;4.47;3.92;;;;;;;;;;5045803;28;20112;-57
2021/07/22 12:48:57;;;;;;;4.53;3.92;;;;;;;;;;5040426;28;20449;-57
2021/07/22 12:51:23;;;;;;;4.30;3.88;;;;;;;;;;5037366;28;20040;-57
2021/07/22 12:53:49;;;;;;;6.13;4.20;;;;;;;;;;5033220;28;20064;-57
2021/07/22 12:56:15;;;;;;;5.75;4.40;;;;;;;;;;5028056;28;20029;-57
2021/07/22 12:58:47;;;;;;;6.07;4.50;;;;;;;;;;5032615;28;20079;-57
2021/07/22 13:01:25;;;;;;;5.45;4.22;;;;;;;;;;5035598;28;20624;-57
2021/07/22 13:03:55;;;;;;;4.70;3.88;;;;;;;;;;5033050;28;20562;-57
2021/07/22 13:06:22;;;;;;;4.38;3.88;;;;;;;;;;5040664;28;20036;-57
2021/07/22 13:08:48;;;;;;;4.20;3.80;;;;;;;;;;5045087;28;20033;-57
2021/07/22 13:11:16;;;;;;;4.25;3.60;;;;;;;;;;5044405;28;20028;-57
2021/07/22 13:13:43;;;;;;;4.47;4.07;;;;;;;;;;5047385;28;20075;-57
2021/07/22 13:16:10;;;;;;;4.07;3.67;;;;;;;;;;5044569;28;20095;-58
2021/07/22 13:18:37;;;;;;;4.57;3.90;;;;;;;;;;5042790;28;20034;-57
2021/07/22 13:21:03;;;;;;;5.05;4.03;;;;;;;;;;5045627;28;20617;-57
2021/07/22 13:23:33;;;;;;;4.20;3.80;;;;;;;;;;5047430;28;20090;-57
2021/07/22 13:26:00;;;;;;;4.38;3.97;;;;;;;;;;5044321;28;20116;-57
2021/07/22 13:28:26;;;;;;;6.53;5.03;;;;;;;;;;5046572;28;20025;-57
2021/07/22 13:30:52;;;;;;;4.63;4.07;;;;;;;;;;5042459;28;20075;-56
2021/07/22 13:33:18;;;;;;;5.53;4.88;;;;;;;;;;5035487;28;20033;-57
2021/07/22 13:35:44;;;;;;;5.03;4.43;;;;;;;;;;5029343;28;20498;-57
2021/07/22 13:38:11;;;;;;;7.15;4.93;;;;;;;;;;5033176;28;20499;-57
2021/07/22 13:40:37;;;;;;;4.95;4.45;;;;;;;;;;5026660;28;20041;-57
2021/07/22 13:43:04;;;;;;;4.75;4.25;;;;;;;;;;5039978;28;20033;-57
2021/07/22 13:45:30;;;;;;;4.82;4.32;;;;;;;;;;5047084;28;20021;-57
2021/07/22 13:47:57;;;;;;;4.85;4.20;;;;;;;;;;5046435;28;20025;-57
2021/07/22 13:50:23;;;;;;;3.95;3.53;;;;;;;;;;5046550;28;20021;-58
2021/07/22 13:52:49;;;;;;;4.40;3.97;;;;;;;;;;5043326;28;20397;-58
2021/07/22 13:55:15;;;;;;;7.32;4.70;;;;;;;;;;5043995;28;20029;-57
2021/07/22 13:57:41;;;;;;;4.18;3.78;;;;;;;;;;5046415;28;20071;-58
2021/07/22 14:00:08;;;;;;;4.70;4.20;;;;;;;;;;5035716;28;20403;-57
2021/07/22 14:02:35;;;;;;;5.20;4.65;;;;;;;;;;5026273;28;20025;-58
2021/07/22 14:05:01;;;;;;;4.80;4.28;;;;;;;;;;5027294;28;20025;-58
2021/07/22 14:07:27;;;;;;;4.63;4.13;;;;;;;;;;5041300;28;20033;-58
2021/07/22 14:09:53;;;;;;;4.55;4.15;;;;;;;;;;5046553;28;20099;-58
2021/07/22 14:12:19;;;;;;;4.30;3.90;;;;;;;;;;5043025;28;20506;-58
2021/07/22 14:14:45;;;;;;;4.43;3.88;;;;;;;;;;5036226;28;20509;-58
2021/07/22 14:17:11;;;;;;;3.80;3.40;;;;;;;;;;5031733;28;20030;-58
2021/07/22 14:19:37;;;;;;;4.72;4.03;;;;;;;;;;5029419;28;20052;-58
2021/07/22 14:22:04;;;;;;;4.90;4.35;;;;;;;;;;5032981;28;20515;-58
2021/07/22 14:24:30;;;;;;;4.05;3.65;;;;;;;;;;5036899;28;20108;-58
2021/07/22 14:26:57;;;;;;;4.15;3.75;;;;;;;;;;5031789;28;20040;-58
2021/07/22 14:29:23;;;;;;;4.68;4.18;;;;;;;;;;5046122;28;20074;-58
2021/07/22 14:31:49;;;;;;;4.72;4.20;;;;;;;;;;5032791;28;20100;-58
2021/07/22 14:34:17;;;;;;;5.38;4.60;;;;;;;;;;5032769;28;20029;-58
2021/07/22 14:36:43;;;;;;;5.90;4.40;;;;;;;;;;5046080;28;20021;-58
2021/07/22 14:39:09;;;;;;;5.13;4.43;;;;;;;;;;5039879;28;20573;-58
2021/07/22 14:41:35;;;;;;;4.95;4.32;;;;;;;;;;5038537;28;20466;-58
2021/07/22 14:44:01;;;;;;;4.53;4.13;;;;;;;;;;5059971;28;20029;-58
2021/07/22 14:46:27;;;;;;;5.25;4.70;;;;;;;;;;5042725;28;20067;-58